Time,TemperatureF,DewpointF,PressureIn,WindDirection,WindDirectionDegrees,WindSpeedMPH,WindSpeedGustMPH,Humidity,HourlyPrecipIn,Conditions,Clouds,dailyrainin,SoftwareType,DateUTC
2013-05-10 00:00:00,62.0,56.1,30.01,NNW,328,0.0,0.0,81,0.00,,,0.00,WUHU216DAVISVP2,2013-05-10 04:00:00,
2013-05-10 00:01:00,61.8,55.9,30.01,NNW,328,0.0,0.0,81,0.00,,,0.00,WUHU216DAVISVP2,2013-05-10 04:01:00,
2013-05-10 00:06:00,61.8,56.2,30.01,NNW,328,0.0,0.0,82,0.00,,,0.00,WUHU216DAVISVP2,2013-05-10 04:06:00,
2013-05-10 00:11:00,61.8,56.3,30.01,NNW,328,0.0,0.0,82,0.00,,,0.00,WUHU216DAVISVP2,2013-05-10 04:11:00,
2013-05-10 00:16:00,61.8,56.3,30.01,NNW,328,0.0,0.0,82,0.00,,,0.00,WUHU216DAVISVP2,2013-05-10 04:16:00,
2013-05-10 00:21:00,61.6,56.1,30.01,NNW,328,0.0,0.0,82,0.00,,,0.00,WUHU216DAVISVP2,2013-05-10 04:21:00,
2013-05-10 00:26:00,61.5,56.0,30.01,NNW,328,0.0,0.0,82,0.00,,,0.00,WUHU216DAVISVP2,2013-05-10 04:26:00,
2013-05-10 00:31:00,61.5,56.0,30.01,NNW,328,0.0,0.0,82,0.00,,,0.00,WUHU216DAVISVP2,2013-05-10 04:31:00,
2013-05-10 00:36:00,61.3,56.1,30.01,NNW,328,0.0,0.0,83,0.00,,,0.00,WUHU216DAVISVP2,2013-05-10 04:36:00,
2013-05-10 00:41:00,61.3,55.8,30.01,NNW,328,0.0,0.0,82,0.00,,,0.00,WUHU216DAVISVP2,2013-05-10 04:41:00,
2013-05-10 00:46:00,61.2,56.0,30.01,NNW,328,0.0,0.0,83,0.00,,,0.00,WUHU216DAVISVP2,2013-05-10 04:46:00,
2013-05-10 00:51:00,61.2,56.0,30.01,NNW,328,0.0,0.0,83,0.00,,,0.00,WUHU216DAVISVP2,2013-05-10 04:51:00,
2013-05-10 00:56:00,61.0,55.8,30.01,NNW,328,0.0,0.0,83,0.00,,,0.00,WUHU216DAVISVP2,2013-05-10 04:56:00,
2013-05-10 01:01:00,60.9,55.7,30.02,NNW,328,0.0,0.0,83,0.00,,,0.00,WUHU216DAVISVP2,2013-05-10 05:01:00,
2013-05-10 01:06:00,60.9,55.7,30.02,NNW,328,0.0,0.0,83,0.00,,,0.00,WUHU216DAVISVP2,2013-05-10 05:06:00,
2013-05-10 01:11:00,60.7,55.5,30.02,NNW,328,0.0,0.0,83,0.00,,,0.00,WUHU216DAVISVP2,2013-05-10 05:11:00,
2013-05-10 01:17:00,60.7,55.5,30.02,NNW,328,0.0,0.0,83,0.00,,,0.00,WUHU216DAVISVP2,2013-05-10 05:17:00,
2013-05-10 01:22:00,60.7,55.5,30.02,NNW,328,0.0,0.0,83,0.00,,,0.00,WUHU216DAVISVP2,2013-05-10 05:22:00,
2013-05-10 01:27:00,60.5,55.3,30.02,NNW,328,0.0,0.0,83,0.00,,,0.00,WUHU216DAVISVP2,2013-05-10 05:27:00,
2013-05-10 01:32:00,60.5,55.3,30.02,NNW,328,0.0,0.0,83,0.00,,,0.00,WUHU216DAVISVP2,2013-05-10 05:32:00,
2013-05-10 01:37:00,60.4,55.2,30.02,NNW,328,0.0,0.0,83,0.00,,,0.00,WUHU216DAVISVP2,2013-05-10 05:37:00,
2013-05-10 01:42:00,60.2,55.0,30.02,NNW,328,0.0,0.0,83,0.00,,,0.00,WUHU216DAVISVP2,2013-05-10 05:42:00,
2013-05-10 01:47:00,60.2,55.0,30.02,NNW,328,0.0,0.0,83,0.00,,,0.00,WUHU216DAVISVP2,2013-05-10 05:47:00,
2013-05-10 01:52:00,60.2,55.0,30.02,NNW,328,0.0,0.0,83,0.00,,,0.00,WUHU216DAVISVP2,2013-05-10 05:52:00,
2013-05-10 01:57:00,60.1,54.9,30.02,NNW,328,0.0,0.0,83,0.00,,,0.00,WUHU216DAVISVP2,2013-05-10 05:57:00,
2013-05-10 02:02:00,59.9,54.8,30.01,NNW,328,0.0,0.0,83,0.00,,,0.00,WUHU216DAVISVP2,2013-05-10 06:02:00,
2013-05-10 02:07:00,59.9,54.8,30.01,NNW,328,0.0,0.0,83,0.00,,,0.00,WUHU216DAVISVP2,2013-05-10 06:07:00,
2013-05-10 02:12:00,59.9,55.1,30.01,NNW,328,0.0,0.0,84,0.00,,,0.00,WUHU216DAVISVP2,2013-05-10 06:12:00,
2013-05-10 02:17:00,59.8,55.0,30.01,NNW,328,0.0,0.0,84,0.00,,,0.00,WUHU216DAVISVP2,2013-05-10 06:17:00,
2013-05-10 02:22:00,59.8,55.0,30.01,NNW,328,0.0,0.0,84,0.00,,,0.00,WUHU216DAVISVP2,2013-05-10 06:22:00,
2013-05-10 02:27:00,59.6,54.8,30.01,NNW,328,0.0,0.0,84,0.00,,,0.00,WUHU216DAVISVP2,2013-05-10 06:27:00,
2013-05-10 02:32:00,59.6,54.8,30.01,NNW,328,0.0,0.0,84,0.00,,,0.00,WUHU216DAVISVP2,2013-05-10 06:32:00,
2013-05-10 02:37:00,59.9,55.4,30.01,NNW,328,0.0,0.0,85,0.00,,,0.00,WUHU216DAVISVP2,2013-05-10 06:37:00,
2013-05-10 02:42:00,60.1,55.6,30.01,NNW,328,0.0,0.0,85,0.00,,,0.00,WUHU216DAVISVP2,2013-05-10 06:42:00,
2013-05-10 02:47:00,60.4,55.9,30.01,NNW,328,0.0,0.0,85,0.00,,,0.00,WUHU216DAVISVP2,2013-05-10 06:47:00,
2013-05-10 02:52:00,60.5,56.0,30.01,NNW,328,0.0,0.0,85,0.00,,,0.00,WUHU216DAVISVP2,2013-05-10 06:52:00,
2013-05-10 02:57:00,60.7,56.2,30.01,NNW,328,0.0,0.0,85,0.00,,,0.00,WUHU216DAVISVP2,2013-05-10 06:57:00,
2013-05-10 03:02:00,60.7,56.2,30.00,NNW,328,0.0,0.0,85,0.00,,,0.00,WUHU216DAVISVP2,2013-05-10 07:02:00,
2013-05-10 03:07:00,60.9,56.4,30.00,NNW,328,0.0,0.0,85,0.00,,,0.00,WUHU216DAVISVP2,2013-05-10 07:07:00,
2013-05-10 03:12:00,60.9,56.4,30.00,NNW,328,0.0,0.0,85,0.00,,,0.00,WUHU216DAVISVP2,2013-05-10 07:12:00,
2013-05-10 03:17:00,60.7,56.2,30.00,NNW,328,0.0,0.0,85,0.00,,,0.00,WUHU216DAVISVP2,2013-05-10 07:17:00,
2013-05-10 03:22:00,60.7,56.2,30.00,NNW,328,0.0,0.0,85,0.00,,,0.00,WUHU216DAVISVP2,2013-05-10 07:22:00,
2013-05-10 03:27:00,60.5,56.0,30.00,NNW,328,0.0,0.0,85,0.00,,,0.00,WUHU216DAVISVP2,2013-05-10 07:27:00,
2013-05-10 03:32:00,60.5,56.0,30.01,NNW,328,0.0,0.0,85,0.00,,,0.00,WUHU216DAVISVP2,2013-05-10 07:32:00,
2013-05-10 03:37:00,60.5,56.0,30.01,NNW,328,0.0,0.0,85,0.00,,,0.00,WUHU216DAVISVP2,2013-05-10 07:37:00,
2013-05-10 03:42:00,60.2,55.7,30.01,NNW,328,0.0,0.0,85,0.00,,,0.00,WUHU216DAVISVP2,2013-05-10 07:42:00,
2013-05-10 03:47:00,60.2,55.7,30.01,NNW,328,0.0,0.0,85,0.00,,,0.00,WUHU216DAVISVP2,2013-05-10 07:47:00,
2013-05-10 03:52:00,59.9,55.4,30.01,NNW,328,0.0,0.0,85,0.00,,,0.00,WUHU216DAVISVP2,2013-05-10 07:52:00,
2013-05-10 03:57:00,59.9,55.4,30.01,NNW,328,0.0,0.0,85,0.00,,,0.00,WUHU216DAVISVP2,2013-05-10 07:57:00,
2013-05-10 04:02:00,59.9,55.4,30.01,NNW,328,0.0,0.0,85,0.00,,,0.00,WUHU216DAVISVP2,2013-05-10 08:02:00,
2013-05-10 04:07:00,59.8,55.3,30.01,NNW,328,0.0,0.0,85,0.00,,,0.00,WUHU216DAVISVP2,2013-05-10 08:07:00,
2013-05-10 04:12:00,59.6,55.1,30.01,NNW,328,0.0,0.0,85,0.00,,,0.00,WUHU216DAVISVP2,2013-05-10 08:12:00,
2013-05-10 04:17:00,59.6,55.1,30.01,NNW,328,0.0,0.0,85,0.00,,,0.00,WUHU216DAVISVP2,2013-05-10 08:17:00,
2013-05-10 04:22:00,59.5,55.0,30.01,NNW,328,0.0,0.0,85,0.00,,,0.00,WUHU216DAVISVP2,2013-05-10 08:22:00,
2013-05-10 04:27:00,59.5,55.0,30.01,NNW,328,0.0,0.0,85,0.00,,,0.00,WUHU216DAVISVP2,2013-05-10 08:27:00,
2013-05-10 04:32:00,59.3,54.8,30.01,NNW,328,0.0,0.0,85,0.00,,,0.00,WUHU216DAVISVP2,2013-05-10 08:32:00,
2013-05-10 04:37:00,59.2,54.7,30.01,NNW,328,0.0,0.0,85,0.00,,,0.00,WUHU216DAVISVP2,2013-05-10 08:37:00,
2013-05-10 04:42:00,59.2,54.7,30.01,NNW,328,0.0,0.0,85,0.00,,,0.00,WUHU216DAVISVP2,2013-05-10 08:42:00,
2013-05-10 04:47:00,59.2,54.7,30.01,NNW,328,0.0,0.0,85,0.00,,,0.00,WUHU216DAVISVP2,2013-05-10 08:47:00,
2013-05-10 04:52:00,59.0,54.8,30.01,NNW,328,0.0,0.0,86,0.00,,,0.00,WUHU216DAVISVP2,2013-05-10 08:52:00,
2013-05-10 04:57:00,59.0,54.8,30.01,NNW,328,0.0,0.0,86,0.00,,,0.00,WUHU216DAVISVP2,2013-05-10 08:57:00,
2013-05-10 05:02:00,59.0,54.8,30.01,NNW,328,0.0,0.0,86,0.00,,,0.00,WUHU216DAVISVP2,2013-05-10 09:02:00,
2013-05-10 05:07:00,58.9,54.7,30.01,NNW,328,0.0,0.0,86,0.00,,,0.00,WUHU216DAVISVP2,2013-05-10 09:07:00,
2013-05-10 05:12:00,58.9,54.7,30.01,NNW,328,0.0,0.0,86,0.00,,,0.00,WUHU216DAVISVP2,2013-05-10 09:12:00,
2013-05-10 05:17:00,58.7,54.5,30.01,NNW,328,0.0,0.0,86,0.00,,,0.00,WUHU216DAVISVP2,2013-05-10 09:17:00,
2013-05-10 05:22:00,58.7,54.5,30.01,NNW,328,0.0,0.0,86,0.00,,,0.00,WUHU216DAVISVP2,2013-05-10 09:22:00,
2013-05-10 05:27:00,58.7,54.5,30.01,NNW,328,0.0,0.0,86,0.00,,,0.00,WUHU216DAVISVP2,2013-05-10 09:27:00,
2013-05-10 05:32:00,58.7,54.5,30.01,NNW,328,0.0,0.0,86,0.00,,,0.00,WUHU216DAVISVP2,2013-05-10 09:32:00,
2013-05-10 05:37:00,58.6,54.4,30.01,NNW,328,0.0,0.0,86,0.00,,,0.00,WUHU216DAVISVP2,2013-05-10 09:37:00,
2013-05-10 05:42:00,58.6,54.4,30.01,NNW,328,0.0,0.0,86,0.00,,,0.00,WUHU216DAVISVP2,2013-05-10 09:42:00,
2013-05-10 05:47:00,58.6,54.4,30.01,NNW,328,0.0,0.0,86,0.00,,,0.00,WUHU216DAVISVP2,2013-05-10 09:47:00,
2013-05-10 05:52:00,58.4,54.5,30.01,NNW,328,0.0,0.0,87,0.00,,,0.00,WUHU216DAVISVP2,2013-05-10 09:52:00,
2013-05-10 05:57:00,58.4,54.5,30.01,NNW,328,0.0,0.0,87,0.00,,,0.00,WUHU216DAVISVP2,2013-05-10 09:57:00,
2013-05-10 06:02:00,58.6,54.7,30.01,NNW,328,0.0,0.0,87,0.00,,,0.00,WUHU216DAVISVP2,2013-05-10 10:02:00,
2013-05-10 06:07:00,58.6,54.7,30.01,NNW,328,0.0,0.0,87,0.00,,,0.00,WUHU216DAVISVP2,2013-05-10 10:07:00,
2013-05-10 06:12:00,58.6,54.7,30.01,NNW,328,0.0,0.0,87,0.00,,,0.00,WUHU216DAVISVP2,2013-05-10 10:12:00,
2013-05-10 06:16:00,58.6,54.7,30.01,NNW,328,0.0,0.0,87,0.00,,,0.00,WUHU216DAVISVP2,2013-05-10 10:16:00,
2013-05-10 06:21:00,58.6,54.7,30.01,NNW,328,0.0,0.0,87,0.00,,,0.00,WUHU216DAVISVP2,2013-05-10 10:21:00,
2013-05-10 06:26:00,58.6,54.7,30.01,NNW,328,0.0,0.0,87,0.00,,,0.00,WUHU216DAVISVP2,2013-05-10 10:26:00,
2013-05-10 06:31:00,58.7,54.8,30.01,NNW,328,0.0,0.0,87,0.00,,,0.00,WUHU216DAVISVP2,2013-05-10 10:31:00,
2013-05-10 06:37:00,58.9,55.0,30.01,NNW,328,0.0,0.0,87,0.00,,,0.00,WUHU216DAVISVP2,2013-05-10 10:37:00,
2013-05-10 06:42:00,59.0,55.1,30.01,NNW,328,0.0,0.0,87,0.00,,,0.00,WUHU216DAVISVP2,2013-05-10 10:42:00,
2013-05-10 06:47:00,59.2,55.3,30.02,NNW,328,0.0,0.0,87,0.00,,,0.00,WUHU216DAVISVP2,2013-05-10 10:47:00,
2013-05-10 06:52:00,59.3,55.7,30.02,NNW,328,0.0,0.0,88,0.00,,,0.00,WUHU216DAVISVP2,2013-05-10 10:52:00,
2013-05-10 06:57:00,59.5,55.9,30.02,NNW,328,0.0,0.0,88,0.00,,,0.00,WUHU216DAVISVP2,2013-05-10 10:57:00,
2013-05-10 07:02:00,59.8,56.2,30.02,NNW,328,0.0,0.0,88,0.00,,,0.00,WUHU216DAVISVP2,2013-05-10 11:02:00,
2013-05-10 07:07:00,60.1,56.5,30.02,NNW,328,0.0,0.0,88,0.00,,,0.00,WUHU216DAVISVP2,2013-05-10 11:07:00,
2013-05-10 07:12:00,60.4,56.8,30.02,NNW,328,0.0,0.0,88,0.00,,,0.00,WUHU216DAVISVP2,2013-05-10 11:12:00,
2013-05-10 07:17:00,60.7,57.1,30.02,NNW,328,0.0,0.0,88,0.00,,,0.00,WUHU216DAVISVP2,2013-05-10 11:17:00,
2013-05-10 07:22:00,61.0,57.4,30.02,NNW,328,0.0,0.0,88,0.00,,,0.00,WUHU216DAVISVP2,2013-05-10 11:22:00,
2013-05-10 07:27:00,61.3,57.7,30.02,NNW,328,0.0,0.0,88,0.00,,,0.00,WUHU216DAVISVP2,2013-05-10 11:27:00,
2013-05-10 07:32:00,61.6,58.0,30.02,NNW,328,0.0,0.0,88,0.00,,,0.00,WUHU216DAVISVP2,2013-05-10 11:32:00,
2013-05-10 07:37:00,62.0,58.4,30.02,NNW,328,0.0,0.0,88,0.00,,,0.00,WUHU216DAVISVP2,2013-05-10 11:37:00,
2013-05-10 07:42:00,62.1,58.5,30.02,NNW,328,0.0,0.0,88,0.00,,,0.00,WUHU216DAVISVP2,2013-05-10 11:42:00,
2013-05-10 07:47:00,62.4,58.8,30.02,NNW,328,0.0,0.0,88,0.00,,,0.00,WUHU216DAVISVP2,2013-05-10 11:47:00,
2013-05-10 07:52:00,62.7,59.1,30.02,NNW,328,0.0,0.0,88,0.00,,,0.00,WUHU216DAVISVP2,2013-05-10 11:52:00,
2013-05-10 07:57:00,63.1,59.5,30.02,NNW,328,0.0,0.0,88,0.00,,,0.00,WUHU216DAVISVP2,2013-05-10 11:57:00,
2013-05-10 08:02:00,63.4,59.8,30.02,NNW,328,0.0,0.0,88,0.00,,,0.00,WUHU216DAVISVP2,2013-05-10 12:02:00,
2013-05-10 08:07:00,63.5,59.6,30.02,NNW,328,0.0,0.0,87,0.00,,,0.00,WUHU216DAVISVP2,2013-05-10 12:07:00,
2013-05-10 08:13:00,63.9,60.0,30.02,NNW,328,0.0,0.0,87,0.00,,,0.00,WUHU216DAVISVP2,2013-05-10 12:13:00,
2013-05-10 08:18:00,64.3,60.3,30.02,NNW,328,0.0,0.0,87,0.00,,,0.00,WUHU216DAVISVP2,2013-05-10 12:18:00,
2013-05-10 08:23:00,65.0,61.0,30.02,NNW,328,0.0,0.0,87,0.00,,,0.00,WUHU216DAVISVP2,2013-05-10 12:23:00,
2013-05-10 08:27:00,65.3,61.0,30.02,NNW,328,0.0,0.0,86,0.00,,,0.00,WUHU216DAVISVP2,2013-05-10 12:27:00,
2013-05-10 08:32:00,65.6,61.3,30.02,NNW,328,0.0,0.0,86,0.00,,,0.00,WUHU216DAVISVP2,2013-05-10 12:32:00,
2013-05-10 08:37:00,66.1,61.8,30.02,NNW,328,0.0,0.0,86,0.00,,,0.00,WUHU216DAVISVP2,2013-05-10 12:37:00,
2013-05-10 08:42:00,66.6,61.9,30.02,NNW,328,0.0,0.0,85,0.00,,,0.00,WUHU216DAVISVP2,2013-05-10 12:42:00,
2013-05-10 08:47:00,67.1,62.4,30.02,NNW,328,0.0,0.0,85,0.00,,,0.00,WUHU216DAVISVP2,2013-05-10 12:47:00,
2013-05-10 08:52:00,67.6,62.6,30.02,NNW,346,0.0,0.0,84,0.00,,,0.00,WUHU216DAVISVP2,2013-05-10 12:52:00,
2013-05-10 08:57:00,68.1,62.4,30.02,NE,54,0.0,0.0,82,0.00,,,0.00,WUHU216DAVISVP2,2013-05-10 12:57:00,
2013-05-10 09:02:00,68.8,63.1,30.02,NE,54,0.0,0.0,82,0.00,,,0.00,WUHU216DAVISVP2,2013-05-10 13:02:00,
2013-05-10 09:07:00,69.3,63.3,30.02,North,7,0.0,0.0,81,0.00,,,0.00,WUHU216DAVISVP2,2013-05-10 13:07:00,
2013-05-10 09:12:00,69.9,63.5,30.02,North,7,0.0,0.0,80,0.00,,,0.00,WUHU216DAVISVP2,2013-05-10 13:12:00,
2013-05-10 09:17:00,70.6,63.9,30.02,North,11,0.0,0.0,79,0.00,,,0.00,WUHU216DAVISVP2,2013-05-10 13:17:00,
2013-05-10 09:22:00,71.5,64.4,30.02,North,11,0.0,0.0,78,0.00,,,0.00,WUHU216DAVISVP2,2013-05-10 13:22:00,
2013-05-10 09:27:00,71.8,64.0,30.02,North,350,0.0,2.0,76,0.00,,,0.00,WUHU216DAVISVP2,2013-05-10 13:27:00,
2013-05-10 09:32:00,72.3,63.5,30.02,North,352,0.0,2.0,74,0.00,,,0.00,WUHU216DAVISVP2,2013-05-10 13:32:00,
2013-05-10 09:37:00,72.8,64.0,30.02,North,352,0.0,0.0,74,0.00,,,0.00,WUHU216DAVISVP2,2013-05-10 13:37:00,
2013-05-10 09:42:00,73.3,64.1,30.02,North,352,0.0,0.0,73,0.00,,,0.00,WUHU216DAVISVP2,2013-05-10 13:42:00,
2013-05-10 09:47:00,73.9,64.9,30.01,North,352,0.0,0.0,73,0.00,,,0.00,WUHU216DAVISVP2,2013-05-10 13:47:00,
2013-05-10 09:52:00,74.4,65.0,30.01,North,352,0.0,0.0,72,0.00,,,0.00,WUHU216DAVISVP2,2013-05-10 13:52:00,
2013-05-10 09:57:00,74.9,65.4,30.01,ESE,103,0.0,0.0,72,0.00,,,0.00,WUHU216DAVISVP2,2013-05-10 13:57:00,
2013-05-10 10:02:00,75.3,65.0,30.01,North,1,0.0,0.0,70,0.00,,,0.00,WUHU216DAVISVP2,2013-05-10 14:02:00,
2013-05-10 10:07:00,75.8,65.3,30.01,ENE,61,0.0,0.0,70,0.00,,,0.00,WUHU216DAVISVP2,2013-05-10 14:07:00,
2013-05-10 10:12:00,76.3,65.4,30.01,ENE,61,0.0,0.0,69,0.00,,,0.00,WUHU216DAVISVP2,2013-05-10 14:12:00,
2013-05-10 10:17:00,76.8,64.1,30.01,ENE,61,0.0,0.0,65,0.00,,,0.00,WUHU216DAVISVP2,2013-05-10 14:17:00,
2013-05-10 10:22:00,77.4,64.7,30.01,ENE,61,0.0,0.0,65,0.00,,,0.00,WUHU216DAVISVP2,2013-05-10 14:22:00,
2013-05-10 10:27:00,77.9,66.5,30.01,ENE,62,0.0,0.0,68,0.00,,,0.00,WUHU216DAVISVP2,2013-05-10 14:27:00,
2013-05-10 10:32:00,78.8,67.1,30.01,ENE,62,0.0,0.0,67,0.00,,,0.00,WUHU216DAVISVP2,2013-05-10 14:32:00,
2013-05-10 10:37:00,79.4,66.4,30.01,ENE,62,0.0,0.0,64,0.00,,,0.00,WUHU216DAVISVP2,2013-05-10 14:37:00,
2013-05-10 10:42:00,79.6,65.7,30.01,ENE,64,0.0,0.0,62,0.00,,,0.00,WUHU216DAVISVP2,2013-05-10 14:42:00,
2013-05-10 10:48:00,79.9,66.9,30.01,ENE,64,0.0,0.0,64,0.00,,,0.00,WUHU216DAVISVP2,2013-05-10 14:48:00,
2013-05-10 10:53:00,80.3,65.6,30.01,ENE,64,0.0,0.0,61,0.00,,,0.00,WUHU216DAVISVP2,2013-05-10 14:53:00,
2013-05-10 10:58:00,80.3,65.9,30.01,ENE,72,0.0,0.0,61,0.00,,,0.00,WUHU216DAVISVP2,2013-05-10 14:58:00,
2013-05-10 11:03:00,80.5,66.5,30.01,North,0,0.0,0.0,62,0.00,,,0.00,WUHU216DAVISVP2,2013-05-10 15:03:00,
2013-05-10 11:08:00,80.5,65.6,30.01,WNW,284,0.0,0.0,60,0.00,,,0.00,WUHU216DAVISVP2,2013-05-10 15:08:00,
2013-05-10 11:13:00,80.5,65.1,30.01,North,0,0.0,0.0,59,0.00,,,0.00,WUHU216DAVISVP2,2013-05-10 15:13:00,
2013-05-10 11:18:00,80.7,65.3,30.00,North,0,0.0,0.0,59,0.00,,,0.00,WUHU216DAVISVP2,2013-05-10 15:18:00,
2013-05-10 11:23:00,81.1,64.6,30.00,North,3,0.0,0.0,57,0.00,,,0.00,WUHU216DAVISVP2,2013-05-10 15:23:00,
2013-05-10 11:28:00,80.7,63.8,30.00,ESE,110,0.0,0.0,56,0.00,,,0.00,WUHU216DAVISVP2,2013-05-10 15:28:00,
2013-05-10 11:33:00,81.1,64.6,30.00,ESE,109,0.0,0.0,57,0.00,,,0.00,WUHU216DAVISVP2,2013-05-10 15:33:00,
2013-05-10 11:38:00,81.4,63.9,30.00,WNW,299,0.0,6.0,55,0.00,,,0.00,WUHU216DAVISVP2,2013-05-10 15:38:00,
2013-05-10 11:43:00,81.8,63.2,30.00,ENE,65,0.0,6.0,53,0.00,,,0.00,WUHU216DAVISVP2,2013-05-10 15:43:00,
2013-05-10 11:48:00,81.8,64.3,30.00,NNE,20,0.0,4.0,55,0.00,,,0.00,WUHU216DAVISVP2,2013-05-10 15:48:00,
2013-05-10 11:53:00,81.6,62.4,30.00,ESE,110,0.0,4.0,52,0.00,,,0.00,WUHU216DAVISVP2,2013-05-10 15:53:00,
2013-05-10 11:58:00,81.8,63.7,30.00,NE,54,0.0,4.0,54,0.00,,,0.00,WUHU216DAVISVP2,2013-05-10 15:58:00,
2013-05-10 12:03:00,82.0,64.4,29.99,NE,54,0.0,0.0,55,0.00,,,0.00,WUHU216DAVISVP2,2013-05-10 16:03:00,
2013-05-10 12:08:00,82.0,62.8,29.99,NE,56,0.0,0.0,52,0.00,,,0.00,WUHU216DAVISVP2,2013-05-10 16:08:00,
2013-05-10 12:13:00,82.0,62.8,29.99,ENE,78,0.0,0.0,52,0.00,,,0.00,WUHU216DAVISVP2,2013-05-10 16:13:00,
2013-05-10 12:18:00,82.2,62.4,29.99,ENE,59,0.0,0.0,51,0.00,,,0.00,WUHU216DAVISVP2,2013-05-10 16:18:00,
2013-05-10 12:23:00,82.6,63.2,29.99,NE,49,0.0,6.0,52,0.00,,,0.00,WUHU216DAVISVP2,2013-05-10 16:23:00,
2013-05-10 12:28:00,82.8,62.4,29.99,NNE,23,0.0,6.0,50,0.00,,,0.00,WUHU216DAVISVP2,2013-05-10 16:28:00,
2013-05-10 12:33:00,83.0,63.7,29.98,North,0,0.0,4.0,52,0.00,,,0.00,WUHU216DAVISVP2,2013-05-10 16:33:00,
2013-05-10 12:38:00,83.2,63.9,29.98,West,265,0.0,0.0,52,0.00,,,0.00,WUHU216DAVISVP2,2013-05-10 16:38:00,
2013-05-10 12:42:00,82.8,61.1,29.98,ENE,64,0.0,1.0,48,0.00,,,0.00,WUHU216DAVISVP2,2013-05-10 16:42:00,
2013-05-10 12:47:00,82.6,62.8,29.97,NE,40,0.0,1.0,51,0.00,,,0.00,WUHU216DAVISVP2,2013-05-10 16:47:00,
2013-05-10 12:52:00,82.6,62.2,29.97,East,99,0.0,1.0,50,0.00,,,0.00,WUHU216DAVISVP2,2013-05-10 16:52:00,
2013-05-10 12:57:00,82.8,62.4,29.97,North,354,0.0,2.0,50,0.00,,,0.00,WUHU216DAVISVP2,2013-05-10 16:57:00,
2013-05-10 13:02:00,83.2,62.8,29.97,WNW,299,0.0,8.0,50,0.00,,,0.00,WUHU216DAVISVP2,2013-05-10 17:02:00,
2013-05-10 13:07:00,83.8,63.2,29.97,ESE,123,0.0,8.0,50,0.00,,,0.00,WUHU216DAVISVP2,2013-05-10 17:07:00,
2013-05-10 13:13:00,84.0,62.9,29.97,ENE,68,0.0,0.0,49,0.00,,,0.00,WUHU216DAVISVP2,2013-05-10 17:13:00,
2013-05-10 13:18:00,84.1,64.7,29.97,ENE,59,0.0,0.0,52,0.00,,,0.00,WUHU216DAVISVP2,2013-05-10 17:18:00,
2013-05-10 13:23:00,84.1,63.6,29.97,ENE,73,0.0,4.0,50,0.00,,,0.00,WUHU216DAVISVP2,2013-05-10 17:23:00,
2013-05-10 13:28:00,84.0,62.3,29.97,ENE,59,0.0,4.0,48,0.00,,,0.00,WUHU216DAVISVP2,2013-05-10 17:28:00,
2013-05-10 13:33:00,83.8,64.5,29.97,ENE,59,0.0,1.0,52,0.00,,,0.00,WUHU216DAVISVP2,2013-05-10 17:33:00,
2013-05-10 13:38:00,84.0,63.5,29.97,ENE,59,0.0,0.0,50,0.00,,,0.00,WUHU216DAVISVP2,2013-05-10 17:38:00,
2013-05-10 13:43:00,84.0,64.7,29.97,North,0,0.0,7.0,52,0.00,,,0.00,WUHU216DAVISVP2,2013-05-10 17:43:00,
2013-05-10 13:48:00,84.3,63.6,29.97,North,0,0.0,7.0,50,0.00,,,0.00,WUHU216DAVISVP2,2013-05-10 17:48:00,
2013-05-10 13:53:00,84.9,63.1,29.97,North,0,0.0,0.0,48,0.00,,,0.00,WUHU216DAVISVP2,2013-05-10 17:53:00,
2013-05-10 13:58:00,85.3,62.9,29.97,North,3,0.0,0.0,47,0.00,,,0.00,WUHU216DAVISVP2,2013-05-10 17:58:00,
2013-05-10 14:03:00,84.9,61.2,29.96,NE,40,0.0,4.0,45,0.00,,,0.00,WUHU216DAVISVP2,2013-05-10 18:03:00,
2013-05-10 14:08:00,84.7,61.6,29.96,SSE,147,0.0,4.0,46,0.00,,,0.00,WUHU216DAVISVP2,2013-05-10 18:08:00,
2013-05-10 14:13:00,84.1,62.4,29.96,South,191,0.0,0.0,48,0.00,,,0.00,WUHU216DAVISVP2,2013-05-10 18:13:00,
2013-05-10 14:18:00,83.6,61.9,29.95,SSW,213,0.0,0.0,48,0.00,,,0.00,WUHU216DAVISVP2,2013-05-10 18:18:00,
2013-05-10 14:23:00,83.2,61.0,29.95,WSW,243,0.0,0.0,47,0.00,,,0.00,WUHU216DAVISVP2,2013-05-10 18:23:00,
2013-05-10 14:28:00,83.2,61.0,29.95,NE,51,0.0,0.0,47,0.00,,,0.00,WUHU216DAVISVP2,2013-05-10 18:28:00,
2013-05-10 14:33:00,83.2,62.8,29.95,NE,51,0.0,0.0,50,0.00,,,0.00,WUHU216DAVISVP2,2013-05-10 18:33:00,
2013-05-10 14:38:00,83.4,60.5,29.95,North,11,0.0,0.0,46,0.00,,,0.00,WUHU216DAVISVP2,2013-05-10 18:38:00,
2013-05-10 14:43:00,83.6,61.3,29.95,South,175,0.0,2.0,47,0.00,,,0.00,WUHU216DAVISVP2,2013-05-10 18:43:00,
2013-05-10 14:48:00,83.4,61.1,29.94,South,175,0.0,2.0,47,0.00,,,0.00,WUHU216DAVISVP2,2013-05-10 18:48:00,
2013-05-10 14:53:00,83.4,62.4,29.94,South,175,0.0,0.0,49,0.00,,,0.00,WUHU216DAVISVP2,2013-05-10 18:53:00,
2013-05-10 14:58:00,83.8,63.3,29.94,South,175,0.0,0.0,50,0.00,,,0.00,WUHU216DAVISVP2,2013-05-10 18:58:00,
2013-05-10 15:03:00,84.0,63.4,29.94,South,175,0.0,0.0,50,0.00,,,0.00,WUHU216DAVISVP2,2013-05-10 19:03:00,
2013-05-10 15:08:00,84.5,62.7,29.94,ENE,68,0.0,0.0,48,0.00,,,0.00,WUHU216DAVISVP2,2013-05-10 19:08:00,
2013-05-10 15:13:00,84.9,61.2,29.94,South,172,0.0,2.0,45,0.00,,,0.00,WUHU216DAVISVP2,2013-05-10 19:13:00,
2013-05-10 15:17:00,85.1,61.4,29.94,ENE,68,0.0,2.0,45,0.00,,,0.00,WUHU216DAVISVP2,2013-05-10 19:17:00,
2013-05-10 15:22:00,85.5,63.7,29.94,NE,40,0.0,2.0,48,0.00,,,0.00,WUHU216DAVISVP2,2013-05-10 19:22:00,
2013-05-10 15:27:00,85.3,61.6,29.94,NNE,31,0.0,0.0,45,0.00,,,0.00,WUHU216DAVISVP2,2013-05-10 19:27:00,
2013-05-10 15:32:00,85.1,62.6,29.93,West,267,0.0,0.0,47,0.00,,,0.00,WUHU216DAVISVP2,2013-05-10 19:32:00,
2013-05-10 15:38:00,85.1,61.4,29.93,NNE,31,0.0,0.0,45,0.00,,,0.00,WUHU216DAVISVP2,2013-05-10 19:38:00,
2013-05-10 15:43:00,85.1,61.4,29.93,South,178,0.0,1.0,45,0.00,,,0.00,WUHU216DAVISVP2,2013-05-10 19:43:00,
2013-05-10 15:50:00,85.3,61.6,29.93,South,175,0.0,1.0,45,0.00,,,0.00,WUHU216DAVISVP2,2013-05-10 19:50:00,
2013-05-10 15:55:00,85.3,60.9,29.93,NW,312,0.0,2.0,44,0.00,,,0.00,WUHU216DAVISVP2,2013-05-10 19:55:00,
2013-05-10 16:00:00,85.1,60.8,29.93,North,8,0.0,7.0,44,0.00,,,0.00,WUHU216DAVISVP2,2013-05-10 20:00:00,
2013-05-10 16:05:00,84.9,61.2,29.93,North,8,0.0,7.0,45,0.00,,,0.00,WUHU216DAVISVP2,2013-05-10 20:05:00,
2013-05-10 16:10:00,84.9,59.9,29.93,East,83,0.0,0.0,43,0.00,,,0.00,WUHU216DAVISVP2,2013-05-10 20:10:00,
2013-05-10 16:15:00,84.9,61.9,29.92,East,82,0.0,1.0,46,0.00,,,0.00,WUHU216DAVISVP2,2013-05-10 20:15:00,
2013-05-10 16:19:00,85.1,62.1,29.92,East,82,0.0,1.0,46,0.00,,,0.00,WUHU216DAVISVP2,2013-05-10 20:19:00,
2013-05-10 16:24:00,84.9,60.6,29.92,South,172,0.0,0.0,44,0.00,,,0.00,WUHU216DAVISVP2,2013-05-10 20:24:00,
2013-05-10 16:29:00,84.9,64.3,29.91,South,172,0.0,0.0,50,0.00,,,0.00,WUHU216DAVISVP2,2013-05-10 20:29:00,
2013-05-10 16:35:00,84.7,61.7,29.91,ENE,65,0.0,0.0,46,0.00,,,0.00,WUHU216DAVISVP2,2013-05-10 20:35:00,
2013-05-10 16:39:00,84.7,61.1,29.91,ENE,65,0.0,0.0,45,0.00,,,0.00,WUHU216DAVISVP2,2013-05-10 20:39:00,
2013-05-10 16:44:00,84.7,61.1,29.91,NE,35,0.0,0.0,45,0.00,,,0.00,WUHU216DAVISVP2,2013-05-10 20:44:00,
2013-05-10 16:49:00,84.7,62.3,29.91,North,359,0.0,0.0,47,0.00,,,0.00,WUHU216DAVISVP2,2013-05-10 20:49:00,
2013-05-10 16:54:00,84.7,63.6,29.91,North,359,0.0,0.0,49,0.00,,,0.00,WUHU216DAVISVP2,2013-05-10 20:54:00,
2013-05-10 16:59:00,84.7,64.1,29.91,North,357,0.0,0.0,50,0.00,,,0.00,WUHU216DAVISVP2,2013-05-10 20:59:00,
2013-05-10 17:04:00,84.7,61.7,29.91,NE,37,0.0,0.0,46,0.00,,,0.00,WUHU216DAVISVP2,2013-05-10 21:04:00,
2013-05-10 17:09:00,84.7,59.7,29.91,SE,128,0.0,1.0,43,0.00,,,0.00,WUHU216DAVISVP2,2013-05-10 21:09:00,
2013-05-10 17:15:00,84.3,61.9,29.91,ESE,116,0.0,6.0,47,0.00,,,0.00,WUHU216DAVISVP2,2013-05-10 21:15:00,
2013-05-10 17:19:00,84.1,61.1,29.91,SE,131,0.0,6.0,46,0.00,,,0.00,WUHU216DAVISVP2,2013-05-10 21:19:00,
2013-05-10 17:24:00,84.1,60.5,29.91,NNE,16,0.0,4.0,45,0.00,,,0.00,WUHU216DAVISVP2,2013-05-10 21:24:00,
2013-05-10 17:29:00,84.0,62.2,29.91,NNE,16,0.0,4.0,48,0.00,,,0.00,WUHU216DAVISVP2,2013-05-10 21:29:00,
2013-05-10 17:34:00,83.6,63.6,29.91,NNE,16,0.0,0.0,51,0.00,,,0.00,WUHU216DAVISVP2,2013-05-10 21:34:00,
2013-05-10 17:39:00,83.4,63.5,29.91,NNE,16,0.0,0.0,51,0.00,,,0.00,WUHU216DAVISVP2,2013-05-10 21:39:00,
2013-05-10 17:44:00,83.0,63.7,29.90,NNE,16,0.0,0.0,52,0.00,,,0.00,WUHU216DAVISVP2,2013-05-10 21:44:00,
2013-05-10 17:49:00,82.6,63.4,29.90,NNE,16,0.0,0.0,52,0.00,,,0.00,WUHU216DAVISVP2,2013-05-10 21:49:00,
2013-05-10 17:54:00,82.2,63.9,29.90,NNE,16,0.0,0.0,54,0.00,,,0.00,WUHU216DAVISVP2,2013-05-10 21:54:00,
2013-05-10 17:58:00,82.2,64.4,29.90,NNE,16,0.0,0.0,55,0.00,,,0.00,WUHU216DAVISVP2,2013-05-10 21:58:00,
2013-05-10 18:03:00,81.6,63.9,29.90,NNE,16,0.0,0.0,55,0.00,,,0.00,WUHU216DAVISVP2,2013-05-10 22:03:00,
2013-05-10 18:08:00,81.1,63.9,29.90,NW,306,0.0,0.0,56,0.00,,,0.00,WUHU216DAVISVP2,2013-05-10 22:08:00,
2013-05-10 18:13:00,80.3,63.7,29.90,SSW,192,0.0,0.0,57,0.00,,,0.00,WUHU216DAVISVP2,2013-05-10 22:13:00,
2013-05-10 18:18:00,80.1,64.0,29.90,SSW,192,0.0,0.0,58,0.00,,,0.00,WUHU216DAVISVP2,2013-05-10 22:18:00,
2013-05-10 18:23:00,79.9,63.8,29.90,NNE,31,0.0,0.0,58,0.00,,,0.00,WUHU216DAVISVP2,2013-05-10 22:23:00,
2013-05-10 18:28:00,79.6,64.0,29.90,NNE,31,0.0,0.0,59,0.00,,,0.00,WUHU216DAVISVP2,2013-05-10 22:28:00,
2013-05-10 18:33:00,79.2,63.6,29.89,NNE,31,0.0,0.0,59,0.00,,,0.00,WUHU216DAVISVP2,2013-05-10 22:33:00,
2013-05-10 18:38:00,79.0,64.4,29.89,NNE,31,0.0,0.0,61,0.00,,,0.00,WUHU216DAVISVP2,2013-05-10 22:38:00,
2013-05-10 18:43:00,78.8,64.7,29.89,NE,45,0.0,0.0,62,0.00,,,0.00,WUHU216DAVISVP2,2013-05-10 22:43:00,
2013-05-10 18:48:00,78.6,64.5,29.89,NE,45,0.0,0.0,62,0.00,,,0.00,WUHU216DAVISVP2,2013-05-10 22:48:00,
2013-05-10 18:54:00,78.3,64.2,29.89,NE,45,0.0,0.0,62,0.00,,,0.00,WUHU216DAVISVP2,2013-05-10 22:54:00,
2013-05-10 18:59:00,78.1,64.5,29.90,NE,45,0.0,0.0,63,0.00,,,0.00,WUHU216DAVISVP2,2013-05-10 22:59:00,
2013-05-10 19:04:00,77.7,64.1,29.90,NE,45,0.0,0.0,63,0.00,,,0.00,WUHU216DAVISVP2,2013-05-10 23:04:00,
2013-05-10 19:09:00,77.6,64.5,29.90,NE,45,0.0,0.0,64,0.00,,,0.00,WUHU216DAVISVP2,2013-05-10 23:09:00,
2013-05-10 19:14:00,77.4,64.7,29.90,NE,45,0.0,0.0,65,0.00,,,0.00,WUHU216DAVISVP2,2013-05-10 23:14:00,
2013-05-10 19:19:00,77.2,64.5,29.90,NE,45,0.0,0.0,65,0.00,,,0.00,WUHU216DAVISVP2,2013-05-10 23:19:00,
2013-05-10 19:24:00,76.8,64.1,29.90,NE,45,0.0,0.0,65,0.00,,,0.00,WUHU216DAVISVP2,2013-05-10 23:24:00,
2013-05-10 19:29:00,76.7,64.0,29.90,NE,45,0.0,0.0,65,0.00,,,0.00,WUHU216DAVISVP2,2013-05-10 23:29:00,
2013-05-10 19:34:00,76.3,64.1,29.90,NE,45,0.0,0.0,66,0.00,,,0.00,WUHU216DAVISVP2,2013-05-10 23:34:00,
2013-05-10 19:39:00,76.0,63.8,29.90,NE,45,0.0,0.0,66,0.00,,,0.00,WUHU216DAVISVP2,2013-05-10 23:39:00,
2013-05-10 19:44:00,75.8,63.6,29.90,NE,45,0.0,0.0,66,0.00,,,0.00,WUHU216DAVISVP2,2013-05-10 23:44:00,
2013-05-10 19:49:00,75.1,63.0,29.90,NE,45,0.0,0.0,66,0.00,,,0.00,WUHU216DAVISVP2,2013-05-10 23:49:00,
2013-05-10 19:54:00,74.7,63.0,29.90,NE,45,0.0,0.0,67,0.00,,,0.00,WUHU216DAVISVP2,2013-05-10 23:54:00,
2013-05-10 19:59:00,74.6,62.9,29.91,NE,45,0.0,0.0,67,0.00,,,0.00,WUHU216DAVISVP2,2013-05-10 23:59:00,
2013-05-10 20:04:00,74.4,63.4,29.91,NE,45,0.0,0.0,68,0.00,,,0.00,WUHU216DAVISVP2,2013-05-11 00:04:00,
2013-05-10 20:09:00,74.0,63.0,29.91,NE,45,0.0,0.0,68,0.00,,,0.00,WUHU216DAVISVP2,2013-05-11 00:09:00,
2013-05-10 20:14:00,73.9,63.3,29.90,NE,45,0.0,0.0,69,0.00,,,0.00,WUHU216DAVISVP2,2013-05-11 00:14:00,
2013-05-10 20:19:00,73.7,63.1,29.90,NE,45,0.0,0.0,69,0.00,,,0.00,WUHU216DAVISVP2,2013-05-11 00:19:00,
2013-05-10 20:24:00,73.3,62.7,29.90,WSW,246,0.0,0.0,69,0.00,,,0.00,WUHU216DAVISVP2,2013-05-11 00:24:00,
2013-05-10 20:29:00,73.0,62.2,29.90,WSW,246,0.0,0.0,69,0.00,,,0.00,WUHU216DAVISVP2,2013-05-11 00:29:00,
2013-05-10 20:34:00,72.7,61.9,29.90,WSW,246,0.0,0.0,69,0.00,,,0.00,WUHU216DAVISVP2,2013-05-11 00:34:00,
2013-05-10 20:39:00,72.3,61.8,29.90,WSW,246,0.0,0.0,69,0.00,,,0.00,WUHU216DAVISVP2,2013-05-11 00:39:00,
2013-05-10 20:44:00,72.1,61.6,29.90,WSW,246,0.0,0.0,69,0.00,,,0.00,WUHU216DAVISVP2,2013-05-11 00:44:00,
2013-05-10 20:49:00,71.6,61.1,29.90,WSW,246,0.0,0.0,69,0.00,,,0.00,WUHU216DAVISVP2,2013-05-11 00:49:00,
2013-05-10 20:54:00,71.3,61.2,29.90,WSW,246,0.0,0.0,70,0.00,,,0.00,WUHU216DAVISVP2,2013-05-11 00:54:00,
2013-05-10 20:59:00,71.1,60.8,29.91,WSW,246,0.0,0.0,70,0.00,,,0.00,WUHU216DAVISVP2,2013-05-11 00:59:00,
2013-05-10 21:04:00,70.9,60.8,29.91,WSW,246,0.0,0.0,70,0.00,,,0.00,WUHU216DAVISVP2,2013-05-11 01:04:00,
2013-05-10 21:09:00,70.6,60.7,29.91,WSW,246,0.0,0.0,71,0.00,,,0.00,WUHU216DAVISVP2,2013-05-11 01:09:00,
2013-05-10 21:14:00,70.4,60.7,29.91,WSW,246,0.0,0.0,71,0.00,,,0.00,WUHU216DAVISVP2,2013-05-11 01:14:00,
2013-05-10 21:19:00,70.3,61.0,29.91,WSW,246,0.0,0.0,72,0.00,,,0.00,WUHU216DAVISVP2,2013-05-11 01:19:00,
2013-05-10 21:24:00,70.1,60.8,29.91,WSW,246,0.0,0.0,72,0.00,,,0.00,WUHU216DAVISVP2,2013-05-11 01:24:00,
2013-05-10 21:29:00,69.9,60.6,29.91,WSW,246,0.0,0.0,72,0.00,,,0.00,WUHU216DAVISVP2,2013-05-11 01:29:00,
2013-05-10 21:34:00,69.8,60.9,29.91,WSW,246,0.0,0.0,73,0.00,,,0.00,WUHU216DAVISVP2,2013-05-11 01:34:00,
2013-05-10 21:39:00,69.6,60.6,29.91,WSW,246,0.0,0.0,73,0.00,,,0.00,WUHU216DAVISVP2,2013-05-11 01:39:00,
2013-05-10 21:44:00,69.4,60.9,29.92,WSW,246,0.0,0.0,74,0.00,,,0.00,WUHU216DAVISVP2,2013-05-11 01:44:00,
2013-05-10 21:50:00,69.3,60.8,29.92,WSW,246,0.0,0.0,74,0.00,,,0.00,WUHU216DAVISVP2,2013-05-11 01:50:00,
2013-05-10 21:55:00,69.3,60.8,29.92,WSW,246,0.0,0.0,74,0.00,,,0.00,WUHU216DAVISVP2,2013-05-11 01:55:00,
2013-05-10 22:00:00,69.3,60.8,29.92,WSW,246,0.0,0.0,74,0.00,,,0.00,WUHU216DAVISVP2,2013-05-11 02:00:00,
2013-05-10 22:05:00,69.1,60.5,29.92,WSW,246,0.0,0.0,74,0.00,,,0.00,WUHU216DAVISVP2,2013-05-11 02:05:00,
2013-05-10 22:11:00,69.1,60.8,29.92,WSW,246,0.0,0.0,75,0.00,,,0.00,WUHU216DAVISVP2,2013-05-11 02:11:00,
2013-05-10 22:16:00,69.1,60.8,29.92,WSW,246,0.0,0.0,75,0.00,,,0.00,WUHU216DAVISVP2,2013-05-11 02:16:00,
2013-05-10 22:22:00,69.1,61.0,29.92,WSW,246,0.0,0.0,75,0.00,,,0.00,WUHU216DAVISVP2,2013-05-11 02:22:00,
2013-05-10 22:27:00,68.9,60.8,29.92,WSW,246,0.0,0.0,75,0.00,,,0.00,WUHU216DAVISVP2,2013-05-11 02:27:00,
2013-05-10 22:32:00,68.9,61.0,29.92,WSW,246,0.0,0.0,76,0.00,,,0.00,WUHU216DAVISVP2,2013-05-11 02:32:00,
2013-05-10 22:37:00,68.9,61.0,29.92,WSW,246,0.0,0.0,76,0.00,,,0.00,WUHU216DAVISVP2,2013-05-11 02:37:00,
2013-05-10 22:42:00,68.8,61.0,29.92,WSW,246,0.0,0.0,76,0.00,,,0.00,WUHU216DAVISVP2,2013-05-11 02:42:00,
2013-05-10 22:47:00,68.8,61.0,29.92,WSW,246,0.0,0.0,76,0.00,,,0.00,WUHU216DAVISVP2,2013-05-11 02:47:00,
2013-05-10 22:52:00,68.6,60.9,29.92,WSW,246,0.0,0.0,76,0.00,,,0.00,WUHU216DAVISVP2,2013-05-11 02:52:00,
2013-05-10 22:57:00,68.6,61.2,29.92,WSW,246,0.0,0.0,77,0.00,,,0.00,WUHU216DAVISVP2,2013-05-11 02:57:00,
2013-05-10 23:02:00,68.6,61.2,29.92,WSW,246,0.0,0.0,77,0.00,,,0.00,WUHU216DAVISVP2,2013-05-11 03:02:00,
2013-05-10 23:07:00,68.6,61.2,29.92,WSW,246,0.0,0.0,77,0.00,,,0.00,WUHU216DAVISVP2,2013-05-11 03:07:00,
2013-05-10 23:12:00,68.6,61.2,29.92,WSW,246,0.0,0.0,77,0.00,,,0.00,WUHU216DAVISVP2,2013-05-11 03:12:00,
2013-05-10 23:17:00,68.8,61.4,29.91,WSW,246,0.0,0.0,77,0.00,,,0.00,WUHU216DAVISVP2,2013-05-11 03:17:00,
2013-05-10 23:22:00,68.8,61.4,29.91,WSW,246,0.0,0.0,77,0.00,,,0.00,WUHU216DAVISVP2,2013-05-11 03:22:00,
2013-05-10 23:27:00,68.9,61.5,29.91,WSW,246,0.0,0.0,77,0.00,,,0.00,WUHU216DAVISVP2,2013-05-11 03:27:00,
2013-05-10 23:32:00,69.3,61.9,29.90,West,263,0.0,4.0,77,0.00,,,0.00,WUHU216DAVISVP2,2013-05-11 03:32:00,
2013-05-10 23:37:00,69.4,62.0,29.90,West,264,0.0,4.0,77,0.00,,,0.00,WUHU216DAVISVP2,2013-05-11 03:37:00,
2013-05-10 23:42:00,69.4,62.0,29.90,West,263,0.0,0.0,77,0.00,,,0.00,WUHU216DAVISVP2,2013-05-11 03:42:00,
2013-05-10 23:47:00,69.4,61.9,29.90,West,264,0.0,0.0,77,0.00,,,0.00,WUHU216DAVISVP2,2013-05-11 03:47:00,
2013-05-10 23:52:00,69.4,61.9,29.90,West,263,0.0,0.0,77,0.00,,,0.00,WUHU216DAVISVP2,2013-05-11 03:52:00,
2013-05-10 23:57:00,69.4,61.9,29.90,West,263,0.0,0.0,77,0.00,,,0.00,WUHU216DAVISVP2,2013-05-11 03:57:00,